sensor_id;sensor_type;location;lat;lon;timestamp;P1;durP1;ratioP1;P2;durP2;ratioP2
836;SDS011;400;53.550;9.932;2022-10-15T00:00:53;16.13;;;14.47;;
836;SDS011;400;53.550;9.932;2022-10-15T00:03:20;17.10;;;15.50;;
836;SDS011;400;53.550;9.932;2022-10-15T00:05:47;16.87;;;15.37;;
836;SDS011;400;53.550;9.932;2022-10-15T00:08:14;16.73;;;15.13;;
836;SDS011;400;53.550;9.932;2022-10-15T00:10:41;17.23;;;15.53;;
836;SDS011;400;53.550;9.932;2022-10-15T00:13:07;17.37;;;15.70;;
836;SDS011;400;53.550;9.932;2022-10-15T00:15:36;18.83;;;15.30;;
836;SDS011;400;53.550;9.932;2022-10-15T00:18:06;17.13;;;15.53;;
836;SDS011;400;53.550;9.932;2022-10-15T00:20:33;16.40;;;14.70;;
836;SDS011;400;53.550;9.932;2022-10-15T00:22:59;16.93;;;15.27;;
836;SDS011;400;53.550;9.932;2022-10-15T00:25:27;17.17;;;15.10;;
836;SDS011;400;53.550;9.932;2022-10-15T00:27:56;17.73;;;16.03;;
836;SDS011;400;53.550;9.932;2022-10-15T00:30:23;15.37;;;13.87;;
836;SDS011;400;53.550;9.932;2022-10-15T00:32:51;16.07;;;14.43;;
836;SDS011;400;53.550;9.932;2022-10-15T00:35:18;15.27;;;13.77;;
836;SDS011;400;53.550;9.932;2022-10-15T00:37:45;15.07;;;13.33;;
836;SDS011;400;53.550;9.932;2022-10-15T00:40:12;19.07;;;12.77;;
836;SDS011;400;53.550;9.932;2022-10-15T00:42:40;17.57;;;14.60;;
836;SDS011;400;53.550;9.932;2022-10-15T00:45:07;15.57;;;13.77;;
836;SDS011;400;53.550;9.932;2022-10-15T00:47:38;16.27;;;13.53;;
836;SDS011;400;53.550;9.932;2022-10-15T00:50:09;15.40;;;13.80;;
836;SDS011;400;53.550;9.932;2022-10-15T00:52:41;16.60;;;15.00;;
836;SDS011;400;53.550;9.932;2022-10-15T00:55:13;16.90;;;15.10;;
836;SDS011;400;53.550;9.932;2022-10-15T00:57:42;15.73;;;14.13;;
836;SDS011;400;53.550;9.932;2022-10-15T01:00:16;16.50;;;14.90;;
836;SDS011;400;53.550;9.932;2022-10-15T01:02:44;16.40;;;14.80;;
836;SDS011;400;53.550;9.932;2022-10-15T01:05:13;16.57;;;14.97;;
836;SDS011;400;53.550;9.932;2022-10-15T01:07:41;17.30;;;15.50;;
836;SDS011;400;53.550;9.932;2022-10-15T01:10:11;17.13;;;15.43;;
836;SDS011;400;53.550;9.932;2022-10-15T01:15:32;18.20;;;16.30;;
836;SDS011;400;53.550;9.932;2022-10-15T01:18:16;19.00;;;17.10;;
836;SDS011;400;53.550;9.932;2022-10-15T01:21:00;20.63;;;17.70;;
836;SDS011;400;53.550;9.932;2022-10-15T01:23:45;18.10;;;16.27;;
836;SDS011;400;53.550;9.932;2022-10-15T01:26:40;18.80;;;16.90;;
836;SDS011;400;53.550;9.932;2022-10-15T01:29:29;18.40;;;16.50;;
836;SDS011;400;53.550;9.932;2022-10-15T01:32:16;21.10;;;16.80;;
836;SDS011;400;53.550;9.932;2022-10-15T01:34:49;20.57;;;18.10;;
836;SDS011;400;53.550;9.932;2022-10-15T01:37:23;20.77;;;18.67;;
836;SDS011;400;53.550;9.932;2022-10-15T01:40:04;20.07;;;18.00;;
836;SDS011;400;53.550;9.932;2022-10-15T01:42:39;20.57;;;18.47;;
836;SDS011;400;53.550;9.932;2022-10-15T01:45:13;22.30;;;18.80;;
836;SDS011;400;53.550;9.932;2022-10-15T01:47:47;21.33;;;19.23;;
836;SDS011;400;53.550;9.932;2022-10-15T01:50:17;20.37;;;18.37;;
836;SDS011;400;53.550;9.932;2022-10-15T01:52:47;20.97;;;18.77;;
836;SDS011;400;53.550;9.932;2022-10-15T01:55:16;21.50;;;19.40;;
836;SDS011;400;53.550;9.932;2022-10-15T01:57:46;23.03;;;20.73;;
836;SDS011;400;53.550;9.932;2022-10-15T02:00:14;23.53;;;20.53;;
836;SDS011;400;53.550;9.932;2022-10-15T02:02:41;22.60;;;20.20;;
836;SDS011;400;53.550;9.932;2022-10-15T02:05:11;22.07;;;19.87;;
836;SDS011;400;53.550;9.932;2022-10-15T02:07:46;21.20;;;19.10;;
836;SDS011;400;53.550;9.932;2022-10-15T02:10:22;24.47;;;21.40;;
836;SDS011;400;53.550;9.932;2022-10-15T02:12:58;22.30;;;20.00;;
836;SDS011;400;53.550;9.932;2022-10-15T02:15:35;25.30;;;20.37;;
836;SDS011;400;53.550;9.932;2022-10-15T02:18:13;22.80;;;20.23;;
836;SDS011;400;53.550;9.932;2022-10-15T02:20:54;24.83;;;21.93;;
836;SDS011;400;53.550;9.932;2022-10-15T02:23:26;24.77;;;20.17;;
836;SDS011;400;53.550;9.932;2022-10-15T02:25:58;25.60;;;22.93;;
836;SDS011;400;53.550;9.932;2022-10-15T02:28:25;22.83;;;20.27;;
836;SDS011;400;53.550;9.932;2022-10-15T02:30:53;24.10;;;21.20;;
836;SDS011;400;53.550;9.932;2022-10-15T02:33:22;22.40;;;19.93;;
836;SDS011;400;53.550;9.932;2022-10-15T02:35:51;22.60;;;20.20;;
836;SDS011;400;53.550;9.932;2022-10-15T02:38:20;23.03;;;20.43;;
836;SDS011;400;53.550;9.932;2022-10-15T02:40:50;26.10;;;23.40;;
836;SDS011;400;53.550;9.932;2022-10-15T02:43:18;25.73;;;21.00;;
836;SDS011;400;53.550;9.932;2022-10-15T02:45:46;23.07;;;20.60;;
836;SDS011;400;53.550;9.932;2022-10-15T02:48:17;21.93;;;19.63;;
836;SDS011;400;53.550;9.932;2022-10-15T02:50:44;23.30;;;20.67;;
836;SDS011;400;53.550;9.932;2022-10-15T02:53:12;22.33;;;19.90;;
836;SDS011;400;53.550;9.932;2022-10-15T02:55:41;20.20;;;17.73;;
836;SDS011;400;53.550;9.932;2022-10-15T02:58:07;19.50;;;17.50;;
836;SDS011;400;53.550;9.932;2022-10-15T03:00:34;21.03;;;18.83;;
836;SDS011;400;53.550;9.932;2022-10-15T03:03:01;20.77;;;18.37;;
836;SDS011;400;53.550;9.932;2022-10-15T03:05:29;20.30;;;17.10;;
836;SDS011;400;53.550;9.932;2022-10-15T03:07:57;19.53;;;17.50;;
836;SDS011;400;53.550;9.932;2022-10-15T03:10:26;19.30;;;17.30;;
836;SDS011;400;53.550;9.932;2022-10-15T03:13:00;20.17;;;17.77;;
836;SDS011;400;53.550;9.932;2022-10-15T03:15:27;18.27;;;16.23;;
836;SDS011;400;53.550;9.932;2022-10-15T03:17:54;19.03;;;17.13;;
836;SDS011;400;53.550;9.932;2022-10-15T03:20:21;20.30;;;16.70;;
836;SDS011;400;53.550;9.932;2022-10-15T03:22:48;19.27;;;17.27;;
836;SDS011;400;53.550;9.932;2022-10-15T03:25:17;18.10;;;16.30;;
836;SDS011;400;53.550;9.932;2022-10-15T03:27:46;18.27;;;15.97;;
836;SDS011;400;53.550;9.932;2022-10-15T03:30:13;22.73;;;17.87;;
836;SDS011;400;53.550;9.932;2022-10-15T03:32:40;21.27;;;18.20;;
836;SDS011;400;53.550;9.932;2022-10-15T03:35:07;20.60;;;17.30;;
836;SDS011;400;53.550;9.932;2022-10-15T03:37:34;21.10;;;18.70;;
836;SDS011;400;53.550;9.932;2022-10-15T03:40:01;24.73;;;19.67;;
836;SDS011;400;53.550;9.932;2022-10-15T03:42:29;23.40;;;20.30;;
836;SDS011;400;53.550;9.932;2022-10-15T03:45:00;26.63;;;21.10;;
836;SDS011;400;53.550;9.932;2022-10-15T03:47:34;24.00;;;19.50;;
836;SDS011;400;53.550;9.932;2022-10-15T03:50:01;24.20;;;18.57;;
836;SDS011;400;53.550;9.932;2022-10-15T03:52:28;22.33;;;17.90;;
836;SDS011;400;53.550;9.932;2022-10-15T03:54:55;21.53;;;18.40;;
836;SDS011;400;53.550;9.932;2022-10-15T03:57:22;23.13;;;18.40;;
836;SDS011;400;53.550;9.932;2022-10-15T03:59:49;23.80;;;19.33;;
836;SDS011;400;53.550;9.932;2022-10-15T04:02:17;23.30;;;18.80;;
836;SDS011;400;53.550;9.932;2022-10-15T04:04:44;23.70;;;18.70;;
836;SDS011;400;53.550;9.932;2022-10-15T04:07:11;25.20;;;19.93;;
836;SDS011;400;53.550;9.932;2022-10-15T04:09:39;24.53;;;19.10;;
836;SDS011;400;53.550;9.932;2022-10-15T04:12:07;22.60;;;18.27;;
836;SDS011;400;53.550;9.932;2022-10-15T04:14:34;23.23;;;19.10;;
836;SDS011;400;53.550;9.932;2022-10-15T04:17:01;22.30;;;17.87;;
836;SDS011;400;53.550;9.932;2022-10-15T04:19:30;27.10;;;21.20;;
836;SDS011;400;53.550;9.932;2022-10-15T04:21:56;23.97;;;19.27;;
836;SDS011;400;53.550;9.932;2022-10-15T04:24:24;28.90;;;20.40;;
836;SDS011;400;53.550;9.932;2022-10-15T04:26:51;23.70;;;19.10;;
836;SDS011;400;53.550;9.932;2022-10-15T04:29:18;30.10;;;20.43;;
836;SDS011;400;53.550;9.932;2022-10-15T04:31:45;25.50;;;21.00;;
836;SDS011;400;53.550;9.932;2022-10-15T04:34:12;27.33;;;21.30;;
836;SDS011;400;53.550;9.932;2022-10-15T04:36:40;29.67;;;22.00;;
836;SDS011;400;53.550;9.932;2022-10-15T04:39:07;32.13;;;23.30;;
836;SDS011;400;53.550;9.932;2022-10-15T04:41:34;28.33;;;21.40;;
836;SDS011;400;53.550;9.932;2022-10-15T04:44:01;31.13;;;22.30;;
836;SDS011;400;53.550;9.932;2022-10-15T04:46:30;28.30;;;22.07;;
836;SDS011;400;53.550;9.932;2022-10-15T04:48:57;32.50;;;23.57;;
836;SDS011;400;53.550;9.932;2022-10-15T04:51:24;36.47;;;23.70;;
836;SDS011;400;53.550;9.932;2022-10-15T04:53:53;32.97;;;24.77;;
836;SDS011;400;53.550;9.932;2022-10-15T04:56:20;32.50;;;24.60;;
836;SDS011;400;53.550;9.932;2022-10-15T04:58:48;32.10;;;23.40;;
836;SDS011;400;53.550;9.932;2022-10-15T05:01:17;30.67;;;22.17;;
836;SDS011;400;53.550;9.932;2022-10-15T05:03:45;35.37;;;24.70;;
836;SDS011;400;53.550;9.932;2022-10-15T05:06:14;31.43;;;23.40;;
836;SDS011;400;53.550;9.932;2022-10-15T05:08:42;32.67;;;22.63;;
836;SDS011;400;53.550;9.932;2022-10-15T05:11:12;31.97;;;23.30;;
836;SDS011;400;53.550;9.932;2022-10-15T05:13:40;28.60;;;21.80;;
836;SDS011;400;53.550;9.932;2022-10-15T05:16:08;30.00;;;23.00;;
836;SDS011;400;53.550;9.932;2022-10-15T05:18:37;33.17;;;21.97;;
836;SDS011;400;53.550;9.932;2022-10-15T05:21:05;31.00;;;23.50;;
836;SDS011;400;53.550;9.932;2022-10-15T05:23:33;30.23;;;21.60;;
836;SDS011;400;53.550;9.932;2022-10-15T05:26:04;29.83;;;22.30;;
836;SDS011;400;53.550;9.932;2022-10-15T05:28:33;28.60;;;21.77;;
836;SDS011;400;53.550;9.932;2022-10-15T05:31:06;36.90;;;23.47;;
836;SDS011;400;53.550;9.932;2022-10-15T05:33:35;31.27;;;23.10;;
836;SDS011;400;53.550;9.932;2022-10-15T05:36:11;31.67;;;22.87;;
836;SDS011;400;53.550;9.932;2022-10-15T05:38:41;35.23;;;24.27;;
836;SDS011;400;53.550;9.932;2022-10-15T05:41:13;31.40;;;23.10;;
836;SDS011;400;53.550;9.932;2022-10-15T05:44:01;33.20;;;24.40;;
836;SDS011;400;53.550;9.932;2022-10-15T05:46:32;34.53;;;23.80;;
836;SDS011;400;53.550;9.932;2022-10-15T05:48:59;32.53;;;24.27;;
836;SDS011;400;53.550;9.932;2022-10-15T05:51:29;34.37;;;25.50;;
836;SDS011;400;53.550;9.932;2022-10-15T05:53:56;33.23;;;24.40;;
836;SDS011;400;53.550;9.932;2022-10-15T05:56:24;33.40;;;23.80;;
836;SDS011;400;53.550;9.932;2022-10-15T05:58:51;33.70;;;24.03;;
836;SDS011;400;53.550;9.932;2022-10-15T06:01:21;33.00;;;25.57;;
836;SDS011;400;53.550;9.932;2022-10-15T06:03:49;33.40;;;24.37;;
836;SDS011;400;53.550;9.932;2022-10-15T06:06:16;29.67;;;23.47;;
836;SDS011;400;53.550;9.932;2022-10-15T06:08:48;30.57;;;24.00;;
836;SDS011;400;53.550;9.932;2022-10-15T06:11:16;47.03;;;38.70;;
836;SDS011;400;53.550;9.932;2022-10-15T06:13:43;32.97;;;24.30;;
836;SDS011;400;53.550;9.932;2022-10-15T06:16:11;35.47;;;24.67;;
836;SDS011;400;53.550;9.932;2022-10-15T06:18:41;34.43;;;23.10;;
836;SDS011;400;53.550;9.932;2022-10-15T06:21:08;30.30;;;22.37;;
836;SDS011;400;53.550;9.932;2022-10-15T06:23:36;31.10;;;21.20;;
836;SDS011;400;53.550;9.932;2022-10-15T06:26:05;31.90;;;22.77;;
836;SDS011;400;53.550;9.932;2022-10-15T06:28:34;31.10;;;23.10;;
836;SDS011;400;53.550;9.932;2022-10-15T06:31:01;29.40;;;22.60;;
836;SDS011;400;53.550;9.932;2022-10-15T06:33:29;31.10;;;23.60;;
836;SDS011;400;53.550;9.932;2022-10-15T06:36:00;34.20;;;23.27;;
836;SDS011;400;53.550;9.932;2022-10-15T06:38:28;30.23;;;23.70;;
836;SDS011;400;53.550;9.932;2022-10-15T06:40:55;35.87;;;22.03;;
836;SDS011;400;53.550;9.932;2022-10-15T06:43:27;31.63;;;22.50;;
836;SDS011;400;53.550;9.932;2022-10-15T06:45:54;33.53;;;23.73;;
836;SDS011;400;53.550;9.932;2022-10-15T06:48:24;31.23;;;23.17;;
836;SDS011;400;53.550;9.932;2022-10-15T06:50:52;34.90;;;25.10;;
836;SDS011;400;53.550;9.932;2022-10-15T06:53:20;33.93;;;25.37;;
836;SDS011;400;53.550;9.932;2022-10-15T06:55:47;31.43;;;22.80;;
836;SDS011;400;53.550;9.932;2022-10-15T06:58:14;31.83;;;24.90;;
836;SDS011;400;53.550;9.932;2022-10-15T07:00:48;29.40;;;23.20;;
836;SDS011;400;53.550;9.932;2022-10-15T07:03:15;33.27;;;24.00;;
836;SDS011;400;53.550;9.932;2022-10-15T07:05:43;30.23;;;21.67;;
836;SDS011;400;53.550;9.932;2022-10-15T07:08:10;32.00;;;22.50;;
836;SDS011;400;53.550;9.932;2022-10-15T07:10:38;32.73;;;23.17;;
836;SDS011;400;53.550;9.932;2022-10-15T07:13:05;30.00;;;22.80;;
836;SDS011;400;53.550;9.932;2022-10-15T07:15:32;31.00;;;23.03;;
836;SDS011;400;53.550;9.932;2022-10-15T07:18:00;27.27;;;21.80;;
836;SDS011;400;53.550;9.932;2022-10-15T07:20:28;32.10;;;23.97;;
836;SDS011;400;53.550;9.932;2022-10-15T07:22:58;30.40;;;24.40;;
836;SDS011;400;53.550;9.932;2022-10-15T07:25:27;28.73;;;21.87;;
836;SDS011;400;53.550;9.932;2022-10-15T07:27:59;28.70;;;22.20;;
836;SDS011;400;53.550;9.932;2022-10-15T07:30:26;33.37;;;23.20;;
836;SDS011;400;53.550;9.932;2022-10-15T07:32:54;29.17;;;22.10;;
836;SDS011;400;53.550;9.932;2022-10-15T07:35:21;27.53;;;22.10;;
836;SDS011;400;53.550;9.932;2022-10-15T07:37:49;34.43;;;22.83;;
836;SDS011;400;53.550;9.932;2022-10-15T07:40:16;28.90;;;20.97;;
836;SDS011;400;53.550;9.932;2022-10-15T07:42:51;28.13;;;22.47;;
836;SDS011;400;53.550;9.932;2022-10-15T07:45:20;29.20;;;22.50;;
836;SDS011;400;53.550;9.932;2022-10-15T07:47:46;30.93;;;23.00;;
836;SDS011;400;53.550;9.932;2022-10-15T07:50:16;27.37;;;21.67;;
836;SDS011;400;53.550;9.932;2022-10-15T07:52:50;29.27;;;22.10;;
836;SDS011;400;53.550;9.932;2022-10-15T07:55:22;27.10;;;19.77;;
836;SDS011;400;53.550;9.932;2022-10-15T07:57:49;32.30;;;23.63;;
836;SDS011;400;53.550;9.932;2022-10-15T08:00:20;30.30;;;22.30;;
836;SDS011;400;53.550;9.932;2022-10-15T08:02:52;25.37;;;20.00;;
836;SDS011;400;53.550;9.932;2022-10-15T08:05:23;30.47;;;21.53;;
836;SDS011;400;53.550;9.932;2022-10-15T08:07:53;24.17;;;21.23;;
836;SDS011;400;53.550;9.932;2022-10-15T08:10:20;25.17;;;20.93;;
836;SDS011;400;53.550;9.932;2022-10-15T08:12:47;27.47;;;21.00;;
836;SDS011;400;53.550;9.932;2022-10-15T08:15:15;21.80;;;19.20;;
836;SDS011;400;53.550;9.932;2022-10-15T08:17:51;129.90;;;105.20;;
836;SDS011;400;53.550;9.932;2022-10-15T08:20:17;32.07;;;28.57;;
836;SDS011;400;53.550;9.932;2022-10-15T08:22:45;24.13;;;20.90;;
836;SDS011;400;53.550;9.932;2022-10-15T08:25:12;21.60;;;19.20;;
836;SDS011;400;53.550;9.932;2022-10-15T08:27:39;26.07;;;20.50;;
836;SDS011;400;53.550;9.932;2022-10-15T08:30:06;23.40;;;19.90;;
836;SDS011;400;53.550;9.932;2022-10-15T08:32:36;24.90;;;19.57;;
836;SDS011;400;53.550;9.932;2022-10-15T08:35:08;21.60;;;17.63;;
836;SDS011;400;53.550;9.932;2022-10-15T08:37:43;23.70;;;19.30;;
836;SDS011;400;53.550;9.932;2022-10-15T08:40:10;23.37;;;18.90;;
836;SDS011;400;53.550;9.932;2022-10-15T08:42:39;22.07;;;17.77;;
836;SDS011;400;53.550;9.932;2022-10-15T08:45:13;21.80;;;16.53;;
836;SDS011;400;53.550;9.932;2022-10-15T08:47:45;25.23;;;18.33;;
836;SDS011;400;53.550;9.932;2022-10-15T08:50:23;21.00;;;17.00;;
836;SDS011;400;53.550;9.932;2022-10-15T08:52:53;24.03;;;21.13;;
836;SDS011;400;53.550;9.932;2022-10-15T08:55:22;26.33;;;22.27;;
836;SDS011;400;53.550;9.932;2022-10-15T08:57:53;23.80;;;18.83;;
836;SDS011;400;53.550;9.932;2022-10-15T09:00:27;22.90;;;19.13;;
836;SDS011;400;53.550;9.932;2022-10-15T09:03:03;28.30;;;22.40;;
836;SDS011;400;53.550;9.932;2022-10-15T09:05:38;28.03;;;25.20;;
836;SDS011;400;53.550;9.932;2022-10-15T09:08:22;32.10;;;28.77;;
836;SDS011;400;53.550;9.932;2022-10-15T09:10:59;29.17;;;24.13;;
836;SDS011;400;53.550;9.932;2022-10-15T09:13:36;20.73;;;18.47;;
836;SDS011;400;53.550;9.932;2022-10-15T09:16:26;25.77;;;22.63;;
836;SDS011;400;53.550;9.932;2022-10-15T09:19:00;19.10;;;16.90;;
836;SDS011;400;53.550;9.932;2022-10-15T09:21:32;21.13;;;18.67;;
836;SDS011;400;53.550;9.932;2022-10-15T09:24:12;17.93;;;15.67;;
836;SDS011;400;53.550;9.932;2022-10-15T09:26:55;18.93;;;16.97;;
836;SDS011;400;53.550;9.932;2022-10-15T09:29:29;20.07;;;17.97;;
836;SDS011;400;53.550;9.932;2022-10-15T09:32:10;15.30;;;13.80;;
836;SDS011;400;53.550;9.932;2022-10-15T09:34:50;18.90;;;14.37;;
836;SDS011;400;53.550;9.932;2022-10-15T09:37:25;15.50;;;13.53;;
836;SDS011;400;53.550;9.932;2022-10-15T09:40:04;18.13;;;14.53;;
836;SDS011;400;53.550;9.932;2022-10-15T09:42:52;16.30;;;14.60;;
836;SDS011;400;53.550;9.932;2022-10-15T09:45:29;16.33;;;13.40;;
836;SDS011;400;53.550;9.932;2022-10-15T09:48:04;16.07;;;13.50;;
836;SDS011;400;53.550;9.932;2022-10-15T09:50:43;65.27;;;58.60;;
836;SDS011;400;53.550;9.932;2022-10-15T09:53:16;17.57;;;15.67;;
836;SDS011;400;53.550;9.932;2022-10-15T09:55:51;22.60;;;19.90;;
836;SDS011;400;53.550;9.932;2022-10-15T09:58:32;18.43;;;14.90;;
836;SDS011;400;53.550;9.932;2022-10-15T10:01:15;19.70;;;16.73;;
836;SDS011;400;53.550;9.932;2022-10-15T10:03:44;16.20;;;12.33;;
836;SDS011;400;53.550;9.932;2022-10-15T10:06:19;17.87;;;14.30;;
836;SDS011;400;53.550;9.932;2022-10-15T10:08:49;14.27;;;12.37;;
836;SDS011;400;53.550;9.932;2022-10-15T10:11:19;19.00;;;15.30;;
836;SDS011;400;53.550;9.932;2022-10-15T10:13:52;13.37;;;11.67;;
836;SDS011;400;53.550;9.932;2022-10-15T10:16:22;14.27;;;12.87;;
836;SDS011;400;53.550;9.932;2022-10-15T10:19:00;20.03;;;15.70;;
836;SDS011;400;53.550;9.932;2022-10-15T10:21:32;14.80;;;11.53;;
836;SDS011;400;53.550;9.932;2022-10-15T10:24:18;13.00;;;11.13;;
836;SDS011;400;53.550;9.932;2022-10-15T10:26:57;12.87;;;11.57;;
836;SDS011;400;53.550;9.932;2022-10-15T10:29:24;49.07;;;44.33;;
836;SDS011;400;53.550;9.932;2022-10-15T10:31:52;13.40;;;12.00;;
836;SDS011;400;53.550;9.932;2022-10-15T10:34:20;43.30;;;38.97;;
836;SDS011;400;53.550;9.932;2022-10-15T10:36:53;14.67;;;12.87;;
836;SDS011;400;53.550;9.932;2022-10-15T10:39:24;16.37;;;12.50;;
836;SDS011;400;53.550;9.932;2022-10-15T10:41:53;17.33;;;15.50;;
836;SDS011;400;53.550;9.932;2022-10-15T10:44:25;17.20;;;15.43;;
836;SDS011;400;53.550;9.932;2022-10-15T10:49:47;19.70;;;14.40;;
836;SDS011;400;53.550;9.932;2022-10-15T10:52:21;10.10;;;8.90;;
836;SDS011;400;53.550;9.932;2022-10-15T10:54:53;12.63;;;9.90;;
836;SDS011;400;53.550;9.932;2022-10-15T10:57:37;11.83;;;10.63;;
836;SDS011;400;53.550;9.932;2022-10-15T11:00:12;14.50;;;12.33;;
836;SDS011;400;53.550;9.932;2022-10-15T11:02:45;11.93;;;10.90;;
836;SDS011;400;53.550;9.932;2022-10-15T11:05:24;15.10;;;12.10;;
836;SDS011;400;53.550;9.932;2022-10-15T11:07:56;14.33;;;12.70;;
836;SDS011;400;53.550;9.932;2022-10-15T11:10:33;11.90;;;10.73;;
836;SDS011;400;53.550;9.932;2022-10-15T11:16:07;13.07;;;9.33;;
836;SDS011;400;53.550;9.932;2022-10-15T11:18:47;11.63;;;9.57;;
836;SDS011;400;53.550;9.932;2022-10-15T11:21:34;10.83;;;9.83;;
836;SDS011;400;53.550;9.932;2022-10-15T11:24:15;10.03;;;9.03;;
836;SDS011;400;53.550;9.932;2022-10-15T11:26:55;10.77;;;9.67;;
836;SDS011;400;53.550;9.932;2022-10-15T11:29:43;8.50;;;7.70;;
836;SDS011;400;53.550;9.932;2022-10-15T11:32:22;8.27;;;7.40;;
836;SDS011;400;53.550;9.932;2022-10-15T11:35:04;6.73;;;5.50;;
836;SDS011;400;53.550;9.932;2022-10-15T11:37:45;5.83;;;3.73;;
836;SDS011;400;53.550;9.932;2022-10-15T11:40:37;4.93;;;3.17;;
836;SDS011;400;53.550;9.932;2022-10-15T11:43:21;5.00;;;4.13;;
836;SDS011;400;53.550;9.932;2022-10-15T11:46:08;7.40;;;5.57;;
836;SDS011;400;53.550;9.932;2022-10-15T11:48:53;6.07;;;4.30;;
836;SDS011;400;53.550;9.932;2022-10-15T11:51:40;4.10;;;3.80;;
836;SDS011;400;53.550;9.932;2022-10-15T11:54:22;5.13;;;3.63;;
836;SDS011;400;53.550;9.932;2022-10-15T11:56:57;8.03;;;3.50;;
836;SDS011;400;53.550;9.932;2022-10-15T11:59:32;3.70;;;3.40;;
836;SDS011;400;53.550;9.932;2022-10-15T12:02:05;3.90;;;3.50;;
836;SDS011;400;53.550;9.932;2022-10-15T12:04:49;4.43;;;3.13;;
836;SDS011;400;53.550;9.932;2022-10-15T12:07:27;3.83;;;3.33;;
836;SDS011;400;53.550;9.932;2022-10-15T12:10:01;3.10;;;2.67;;
836;SDS011;400;53.550;9.932;2022-10-15T12:12:39;5.43;;;4.93;;
836;SDS011;400;53.550;9.932;2022-10-15T12:15:19;16.77;;;15.07;;
836;SDS011;400;53.550;9.932;2022-10-15T12:17:54;10.00;;;9.00;;
836;SDS011;400;53.550;9.932;2022-10-15T12:20:29;12.80;;;11.33;;
836;SDS011;400;53.550;9.932;2022-10-15T12:22:57;7.23;;;6.53;;
836;SDS011;400;53.550;9.932;2022-10-15T12:25:41;9.90;;;8.90;;
836;SDS011;400;53.550;9.932;2022-10-15T12:28:19;6.17;;;5.43;;
836;SDS011;400;53.550;9.932;2022-10-15T12:30:54;9.87;;;8.90;;
836;SDS011;400;53.550;9.932;2022-10-15T12:33:28;9.60;;;8.70;;
836;SDS011;400;53.550;9.932;2022-10-15T12:36:01;9.37;;;5.30;;
836;SDS011;400;53.550;9.932;2022-10-15T12:38:36;5.20;;;4.70;;
836;SDS011;400;53.550;9.932;2022-10-15T12:41:06;6.10;;;5.50;;
836;SDS011;400;53.550;9.932;2022-10-15T12:43:37;5.80;;;5.30;;
836;SDS011;400;53.550;9.932;2022-10-15T12:46:07;5.70;;;5.20;;
836;SDS011;400;53.550;9.932;2022-10-15T12:48:37;7.50;;;6.80;;
836;SDS011;400;53.550;9.932;2022-10-15T13:00:31;4.60;;;4.20;;
836;SDS011;400;53.550;9.932;2022-10-15T13:03:08;5.00;;;4.60;;
836;SDS011;400;53.550;9.932;2022-10-15T13:06:12;5.40;;;4.90;;
836;SDS011;400;53.550;9.932;2022-10-15T13:08:54;5.90;;;5.30;;
836;SDS011;400;53.550;9.932;2022-10-15T13:11:29;4.83;;;4.37;;
836;SDS011;400;53.550;9.932;2022-10-15T13:14:12;6.43;;;5.70;;
836;SDS011;400;53.550;9.932;2022-10-15T13:17:12;6.27;;;4.60;;
836;SDS011;400;53.550;9.932;2022-10-15T13:19:47;5.17;;;4.77;;
836;SDS011;400;53.550;9.932;2022-10-15T13:22:21;4.73;;;4.33;;
836;SDS011;400;53.550;9.932;2022-10-15T13:24:51;5.33;;;4.93;;
836;SDS011;400;53.550;9.932;2022-10-15T13:27:22;4.90;;;4.37;;
836;SDS011;400;53.550;9.932;2022-10-15T13:29:55;5.07;;;4.67;;
836;SDS011;400;53.550;9.932;2022-10-15T13:32:30;5.97;;;5.37;;
836;SDS011;400;53.550;9.932;2022-10-15T13:35:01;6.17;;;5.57;;
836;SDS011;400;53.550;9.932;2022-10-15T13:37:37;6.20;;;5.27;;
836;SDS011;400;53.550;9.932;2022-10-15T13:40:06;5.40;;;4.87;;
836;SDS011;400;53.550;9.932;2022-10-15T13:42:34;6.37;;;5.87;;
836;SDS011;400;53.550;9.932;2022-10-15T13:45:02;8.93;;;8.03;;
836;SDS011;400;53.550;9.932;2022-10-15T13:47:45;6.60;;;5.60;;
836;SDS011;400;53.550;9.932;2022-10-15T13:50:19;8.23;;;6.30;;
836;SDS011;400;53.550;9.932;2022-10-15T13:52:53;8.87;;;7.97;;
836;SDS011;400;53.550;9.932;2022-10-15T13:55:24;6.13;;;5.67;;
836;SDS011;400;53.550;9.932;2022-10-15T13:57:59;6.63;;;6.00;;
836;SDS011;400;53.550;9.932;2022-10-15T14:00:37;10.07;;;7.63;;
836;SDS011;400;53.550;9.932;2022-10-15T14:03:06;9.03;;;8.10;;
836;SDS011;400;53.550;9.932;2022-10-15T14:05:40;10.83;;;8.30;;
836;SDS011;400;53.550;9.932;2022-10-15T14:08:13;9.80;;;8.20;;
836;SDS011;400;53.550;9.932;2022-10-15T14:10:47;10.87;;;9.30;;
836;SDS011;400;53.550;9.932;2022-10-15T14:13:15;8.97;;;8.17;;
836;SDS011;400;53.550;9.932;2022-10-15T14:15:45;10.00;;;9.17;;
836;SDS011;400;53.550;9.932;2022-10-15T14:18:24;11.60;;;10.60;;
836;SDS011;400;53.550;9.932;2022-10-15T14:20:59;11.97;;;10.90;;
836;SDS011;400;53.550;9.932;2022-10-15T14:23:27;10.83;;;9.83;;
836;SDS011;400;53.550;9.932;2022-10-15T14:25:55;11.90;;;10.90;;
836;SDS011;400;53.550;9.932;2022-10-15T14:28:27;12.30;;;11.20;;
836;SDS011;400;53.550;9.932;2022-10-15T14:31:04;10.57;;;9.63;;
836;SDS011;400;53.550;9.932;2022-10-15T14:33:42;11.57;;;10.57;;
836;SDS011;400;53.550;9.932;2022-10-15T14:36:11;11.10;;;10.03;;
836;SDS011;400;53.550;9.932;2022-10-15T14:38:50;12.40;;;11.17;;
836;SDS011;400;53.550;9.932;2022-10-15T14:41:23;13.53;;;12.23;;
836;SDS011;400;53.550;9.932;2022-10-15T14:44:00;13.53;;;12.23;;
836;SDS011;400;53.550;9.932;2022-10-15T14:46:38;11.40;;;10.40;;
836;SDS011;400;53.550;9.932;2022-10-15T14:49:18;14.73;;;13.27;;
836;SDS011;400;53.550;9.932;2022-10-15T14:51:53;14.93;;;13.53;;
836;SDS011;400;53.550;9.932;2022-10-15T14:54:33;15.20;;;13.80;;
836;SDS011;400;53.550;9.932;2022-10-15T14:57:09;13.90;;;12.60;;
836;SDS011;400;53.550;9.932;2022-10-15T14:59:48;13.13;;;12.03;;
836;SDS011;400;53.550;9.932;2022-10-15T15:02:22;14.23;;;12.83;;
836;SDS011;400;53.550;9.932;2022-10-15T15:05:05;15.43;;;13.83;;
836;SDS011;400;53.550;9.932;2022-10-15T15:07:39;14.80;;;13.30;;
836;SDS011;400;53.550;9.932;2022-10-15T15:10:07;14.20;;;12.90;;
836;SDS011;400;53.550;9.932;2022-10-15T15:12:37;14.37;;;12.97;;
836;SDS011;400;53.550;9.932;2022-10-15T15:15:12;15.53;;;14.03;;
836;SDS011;400;53.550;9.932;2022-10-15T15:17:43;13.60;;;12.40;;
836;SDS011;400;53.550;9.932;2022-10-15T15:20:18;15.07;;;13.67;;
836;SDS011;400;53.550;9.932;2022-10-15T15:22:46;17.93;;;14.57;;
836;SDS011;400;53.550;9.932;2022-10-15T15:25:16;12.03;;;11.10;;
836;SDS011;400;53.550;9.932;2022-10-15T15:27:45;13.53;;;12.33;;
836;SDS011;400;53.550;9.932;2022-10-15T15:30:15;14.77;;;13.33;;
836;SDS011;400;53.550;9.932;2022-10-15T15:32:46;13.63;;;12.43;;
836;SDS011;400;53.550;9.932;2022-10-15T15:35:22;14.23;;;13.03;;
836;SDS011;400;53.550;9.932;2022-10-15T15:37:55;12.13;;;10.93;;
836;SDS011;400;53.550;9.932;2022-10-15T15:40:25;12.80;;;11.70;;
836;SDS011;400;53.550;9.932;2022-10-15T15:42:57;12.93;;;11.60;;
836;SDS011;400;53.550;9.932;2022-10-15T15:45:28;12.07;;;11.07;;
836;SDS011;400;53.550;9.932;2022-10-15T15:47:58;12.37;;;11.27;;
836;SDS011;400;53.550;9.932;2022-10-15T15:50:31;12.40;;;11.20;;
836;SDS011;400;53.550;9.932;2022-10-15T15:53:02;20.00;;;18.40;;
836;SDS011;400;53.550;9.932;2022-10-15T15:55:33;11.77;;;10.77;;
836;SDS011;400;53.550;9.932;2022-10-15T15:58:02;11.50;;;10.60;;
836;SDS011;400;53.550;9.932;2022-10-15T16:00:29;12.50;;;11.50;;
836;SDS011;400;53.550;9.932;2022-10-15T16:02:57;12.70;;;11.70;;
836;SDS011;400;53.550;9.932;2022-10-15T16:05:24;35.40;;;32.30;;
836;SDS011;400;53.550;9.932;2022-10-15T16:07:52;17.10;;;15.50;;